Holmesville, Mississippi
Current Conditions -  °F | °C
As of 1:53 AM on Saturday 20 Dec 2014 (Local Time) from KMCB Reporting Station
Haze Haze  
Wind Chill: 42°   Ceiling: 500
Heat Index: 46°   Visibility: 5mi
Dew Point: 43°   Wind: 7mph
Humidity: 89%   Direction: 30°NNE
Pressure: 30.12"   Gusts: NA
Location:  31.1693°N, 90.3678°W
Report Text: KMCB 200753Z AUTO 03006KT 5SM BR OVC005 08/06 A3012 RMK AO2 SLP198 T00780061
Loading
Personal Weather Stations






























Interactive Weather Map New forecast layout! Learn more

10-Day Weather Forecast

Advertisements
Track Severe Weather on mobile